Artvin — 9HA2782 — position and weather

sailwx.info

Track history (hours):
 
Tides and Currents Weather Stations Pressure Air Temp Water Temp Dewpoint Dewpoint Depression Visibility Wind Speed Wind Dir Waves Ship Positions

Artvin

Last reported at 2016-Dec-07 13:14 UTC. Time now 2016-Dec-08 09:58 UTC.
Position N 32°04' E 034°27'.

Length 229 m; draft 13.8 m.

Type: Cargo ship. MMSI: 215678000.

Date/timePositionNaut miles runAvg speedWind from/ knotsBaromVisibWave heightAir tempDewpointWater temp
2016-Dec-07 13:14N 32°04' E 034°27'2 0.9
2016-Dec-07 11:16N 32°04' E 034°25'3 0.7
2016-Dec-07 07:31N 32°03' E 034°22'3 0.4
2016-Dec-07 01:07N 32°03' E 034°19'  
2016-Dec-02 00:32N 36°12' E 014°52'1313.0
2016-Dec-01 23:33N 36°16' E 014°37'1313.2
2016-Dec-01 22:33N 36°21' E 014°21'1313.3
2016-Dec-01 21:33N 36°25' E 014°05'1413.4
2016-Dec-01 20:33N 36°30' E 013°50'  
2016-Nov-28 22:31N 35°60' W 005°11'1515.5
2016-Nov-28 21:33N 35°57' W 005°30'25711.5
2016-Nov-27 23:11N 38°18' W 009°60'813.4
2016-Nov-27 22:33N 38°26' W 010°02'1413.3
2016-Nov-27 21:32N 38°39' W 010°05'1513.5
2016-Nov-27 20:25N 38°54' W 010°06'1213.2
2016-Nov-27 19:33N 39°06' W 010°05'  
Track history (hours):
 
Tides and Currents Weather Stations Pressure Air Temp Water Temp Dewpoint Dewpoint Depression Visibility Wind Speed Wind Dir Waves Ship Positions

Artvin

Last reported at 2016-Dec-07 13:14 UTC. Time now 2016-Dec-08 09:58 UTC.
Position N 32°04' E 034°27'.

Length 229 m; draft 13.8 m.

Type: Cargo ship. MMSI: 215678000.

Date/timePositionNaut miles runAvg speedWind from/ knotsBaromVisibWave heightAir tempDewpointWater temp
2016-Dec-07 13:14N 32°04' E 034°27'2 0.9
2016-Dec-07 11:16N 32°04' E 034°25'3 0.7
2016-Dec-07 07:31N 32°03' E 034°22'3 0.4
2016-Dec-07 01:07N 32°03' E 034°19'  
2016-Dec-02 00:32N 36°12' E 014°52'1313.0
2016-Dec-01 23:33N 36°16' E 014°37'1313.2
2016-Dec-01 22:33N 36°21' E 014°21'1313.3
2016-Dec-01 21:33N 36°25' E 014°05'1413.4
2016-Dec-01 20:33N 36°30' E 013°50'  
2016-Nov-28 22:31N 35°60' W 005°11'1515.5
2016-Nov-28 21:33N 35°57' W 005°30'25711.5
2016-Nov-27 23:11N 38°18' W 009°60'813.4
2016-Nov-27 22:33N 38°26' W 010°02'1413.3
2016-Nov-27 21:32N 38°39' W 010°05'1513.5
2016-Nov-27 20:25N 38°54' W 010°06'1213.2
2016-Nov-27 19:33N 39°06' W 010°05'  

Dump ship's entire track history